Terminal Aerodrome Forecast
Issued by NWS

Home | Current Version | Previous Version | Text Only | Print | Product List | Glossary On
Versions: 1 2 3 4 5 6 7 8 9 10 11 12 13 14
978
FTUS45 KABQ 260209 AAA
TAFROW
TAF AMD
KROW 260209Z 2602/2624 14008KT P6SM VCSH SCT100 BKN140
      TEMPO 2603/2606 VRB22G32KT -TSRA BKN080CB
     FM260600 03010KT P6SM -SHRA BKN070
     FM261200 VRB05KT P6SM FEW050 BKN120
     FM262100 12007KT P6SM SCT090
     FM262300 VRB05KT P6SM VCSH SCT080 BKN120=

USA.gov is the U.S. government's official web portal to all federal, state and local government web resources and services.